EGOM - Spadeadam
Distance from station: E 5mi, 14km
Updated: 10/20/2017 5:50pm
Mostly Cloudy
Mostly Cloudy
 Wind from SE
Wind: SE 9 mph , 15 km/h
Temperature: 48°F , 9°C
Wind Chill: 44°F , 7°C
Dew Point: 48°F , 9°C
Humidity: 100%
Barometer: 29.38 inHg , 995 hPa
Clouds: Mostly Cloudy
Visibility: 6 miles , 10 km
Cloud details: Mostly Cloudy 1000 ft
2017/10/21 00:50 EGOM 210050Z AUTO 14008KT 9999 BKN010/// 09/09 Q0995 RERA